createdAt,value
2023-03-30T00:01:20.098Z,20.47
2023-03-30T00:03:49.285Z,26.13
2023-03-30T00:06:24.443Z,21.47
2023-03-30T00:08:57.339Z,23.77
2023-03-30T00:11:26.996Z,21.30
2023-03-30T00:13:54.535Z,24.57
2023-03-30T00:16:21.894Z,19.23
2023-03-30T00:18:49.043Z,22.83
2023-03-30T00:21:18.221Z,21.80
2023-03-30T00:23:49.090Z,20.80
2023-03-30T00:26:17.611Z,20.17
2023-03-30T00:28:46.208Z,21.53
2023-03-30T00:31:13.444Z,19.53
2023-03-30T00:33:46.305Z,20.37
2023-03-30T00:36:14.942Z,26.37
2023-03-30T00:38:42.067Z,19.97
2023-03-30T00:41:09.431Z,19.07
2023-03-30T00:43:56.915Z,19.90
2023-03-30T00:46:24.398Z,21.60
2023-03-30T00:48:51.675Z,21.40
2023-03-30T00:51:19.608Z,15.93
2023-03-30T00:53:50.766Z,21.30
2023-03-30T00:56:23.524Z,22.43
2023-03-30T00:58:50.858Z,21.20
2023-03-30T01:01:25.980Z,21.17
2023-03-30T01:03:53.865Z,17.40
2023-03-30T01:06:24.868Z,17.77
2023-03-30T01:08:53.500Z,16.03
2023-03-30T01:11:21.647Z,19.50
2023-03-30T01:14:03.230Z,21.40
2023-03-30T01:16:38.501Z,19.47
2023-03-30T01:19:45.008Z,22.33
2023-03-30T01:22:42.708Z,19.60
2023-03-30T01:25:18.478Z,19.23
2023-03-30T01:28:31.051Z,18.63
2023-03-30T01:31:50.393Z,16.10
2023-03-30T01:34:51.855Z,22.80
2023-03-30T01:37:33.112Z,16.67
2023-03-30T01:40:27.671Z,23.43
2023-03-30T01:43:19.435Z,19.67
2023-03-30T01:46:01.685Z,24.10
2023-03-30T01:48:47.867Z,21.57
2023-03-30T01:51:33.428Z,23.57
2023-03-30T01:54:21.393Z,23.43
2023-03-30T01:56:59.717Z,19.50
2023-03-30T01:59:36.707Z,18.97
2023-03-30T02:02:07.287Z,20.17
2023-03-30T02:04:41.988Z,21.37
2023-03-30T02:07:21.243Z,20.73
2023-03-30T02:09:52.043Z,19.73
2023-03-30T02:12:20.952Z,17.63
2023-03-30T02:14:49.643Z,22.23
2023-03-30T02:17:23.117Z,19.80
2023-03-30T02:19:52.604Z,20.10
2023-03-30T02:22:20.475Z,21.17
2023-03-30T02:24:51.680Z,18.30
2023-03-30T02:27:19.051Z,17.47
2023-03-30T02:29:46.468Z,20.87
2023-03-30T02:32:33.686Z,20.37
2023-03-30T02:35:59.366Z,21.60
2023-03-30T02:39:19.859Z,17.07
2023-03-30T02:42:05.119Z,16.77
2023-03-30T02:44:43.962Z,23.03
2023-03-30T02:47:52.076Z,20.73
2023-03-30T02:50:44.929Z,17.87
2023-03-30T02:53:33.567Z,19.73
2023-03-30T02:56:19.356Z,24.93
2023-03-30T02:58:56.696Z,23.00
2023-03-30T03:01:51.091Z,27.20
2023-03-30T03:04:22.179Z,17.23
2023-03-30T03:06:53.085Z,25.07
2023-03-30T03:09:20.866Z,21.53
2023-03-30T03:11:47.955Z,17.70
2023-03-30T03:14:15.003Z,19.20
2023-03-30T03:16:42.382Z,23.50
2023-03-30T03:19:10.790Z,16.43
2023-03-30T03:21:37.793Z,20.33
2023-03-30T03:24:06.612Z,20.17
2023-03-30T03:26:34.140Z,24.30
2023-03-30T03:29:01.128Z,18.83
2023-03-30T03:31:28.242Z,22.00
2023-03-30T03:33:55.377Z,19.97
2023-03-30T03:36:25.350Z,18.53
2023-03-30T03:38:52.515Z,25.43
2023-03-30T03:41:19.709Z,23.77
2023-03-30T03:43:46.921Z,23.57
2023-03-30T03:46:14.476Z,25.43
2023-03-30T03:48:41.567Z,20.50
2023-03-30T03:51:09.896Z,24.00
2023-03-30T03:53:37.010Z,21.83
2023-03-30T03:56:04.252Z,23.63
2023-03-30T03:58:31.874Z,19.17
2023-03-30T04:01:03.340Z,23.20
2023-03-30T04:03:30.867Z,20.67
2023-03-30T04:06:02.491Z,20.63
2023-03-30T04:08:29.866Z,25.57
2023-03-30T04:11:08.146Z,22.40
2023-03-30T04:13:36.076Z,23.07
2023-03-30T04:16:03.437Z,25.00
2023-03-30T04:18:34.265Z,26.47
2023-03-30T04:21:07.626Z,18.70
2023-03-30T04:23:35.702Z,23.33
2023-03-30T04:26:07.325Z,22.50
2023-03-30T04:28:35.724Z,26.40
2023-03-30T04:31:06.726Z,21.27
2023-03-30T04:33:35.157Z,24.57
2023-03-30T04:36:02.396Z,27.83
2023-03-30T04:38:30.431Z,23.53
2023-03-30T04:41:00.634Z,22.53
2023-03-30T04:43:27.675Z,23.80
2023-03-30T04:45:56.646Z,21.90
2023-03-30T04:48:24.732Z,20.83
2023-03-30T04:50:54.189Z,25.10
2023-03-30T04:53:23.084Z,22.30
2023-03-30T04:55:51.980Z,21.97
2023-03-30T04:58:19.049Z,27.03
2023-03-30T05:00:46.128Z,24.93
2023-03-30T05:03:13.448Z,23.77
2023-03-30T05:05:40.727Z,28.10
2023-03-30T05:08:07.847Z,19.93
2023-03-30T05:10:35.045Z,20.47
2023-03-30T05:13:02.130Z,24.53
2023-03-30T05:15:29.302Z,24.00
2023-03-30T05:17:56.844Z,23.70
2023-03-30T05:20:24.141Z,25.33
2023-03-30T05:22:51.282Z,20.93
2023-03-30T05:25:18.607Z,26.07
2023-03-30T05:27:45.811Z,30.40
2023-03-30T05:30:14.125Z,23.93
2023-03-30T05:32:41.538Z,23.10
2023-03-30T05:35:09.057Z,35.07
2023-03-30T05:37:36.464Z,22.23
2023-03-30T05:40:07.365Z,28.87
2023-03-30T05:42:34.464Z,24.27
2023-03-30T05:45:01.657Z,24.37
2023-03-30T05:47:29.110Z,25.63
2023-03-30T05:49:56.174Z,26.57
2023-03-30T05:52:23.975Z,26.30
2023-03-30T05:54:51.097Z,28.60
2023-03-30T05:57:18.246Z,25.80
2023-03-30T05:59:45.496Z,24.97
2023-03-30T06:02:13.018Z,24.70
2023-03-30T06:04:40.224Z,27.53
2023-03-30T06:07:07.958Z,22.37
2023-03-30T06:09:35.159Z,27.83
2023-03-30T06:12:02.709Z,33.73
2023-03-30T06:14:30.032Z,36.60
2023-03-30T06:16:57.384Z,29.07
2023-03-30T06:19:24.573Z,29.83
2023-03-30T06:21:51.579Z,23.20
2023-03-30T06:24:20.179Z,29.10
2023-03-30T06:26:48.666Z,26.53
2023-03-30T06:29:15.794Z,26.47
2023-03-30T06:31:42.919Z,32.90
2023-03-30T06:34:10.001Z,26.47
2023-03-30T06:36:43.931Z,26.13
2023-03-30T06:39:13.314Z,25.73
2023-03-30T06:41:40.694Z,38.00
2023-03-30T06:44:10.466Z,26.00
2023-03-30T06:46:38.137Z,24.93
2023-03-30T06:49:05.179Z,27.57
2023-03-30T06:51:33.996Z,24.07
2023-03-30T06:54:01.983Z,28.77
2023-03-30T06:56:29.014Z,24.80
2023-03-30T06:58:57.223Z,29.43
2023-03-30T07:01:24.382Z,26.17
2023-03-30T07:03:53.517Z,26.43
2023-03-30T07:06:21.297Z,24.13
2023-03-30T07:08:48.589Z,25.77
2023-03-30T07:11:15.630Z,27.90
2023-03-30T07:13:42.767Z,26.20
2023-03-30T07:16:10.210Z,27.17
2023-03-30T07:18:37.312Z,24.53
2023-03-30T07:21:05.099Z,24.53
2023-03-30T07:23:32.466Z,28.60
2023-03-30T07:25:59.942Z,30.20
2023-03-30T07:28:27.214Z,27.03
2023-03-30T07:30:54.414Z,23.80
2023-03-30T07:33:22.177Z,28.57
2023-03-30T07:35:50.192Z,31.57
2023-03-30T07:38:17.537Z,30.40
2023-03-30T07:40:44.710Z,25.20
2023-03-30T07:43:11.744Z,24.47
2023-03-30T07:45:38.801Z,22.67
2023-03-30T07:48:06.054Z,29.03
2023-03-30T07:50:33.102Z,23.17
2023-03-30T07:53:00.315Z,24.93
2023-03-30T07:55:28.804Z,26.80
2023-03-30T07:57:57.254Z,25.60
2023-03-30T08:00:25.040Z,21.43
2023-03-30T08:02:52.319Z,29.27
2023-03-30T08:05:19.482Z,18.63
2023-03-30T08:07:46.543Z,23.07
2023-03-30T08:10:13.635Z,25.47
2023-03-30T08:12:41.574Z,19.67
2023-03-30T08:15:09.708Z,22.93
2023-03-30T08:17:37.308Z,32.47
2023-03-30T08:20:10.770Z,21.83
2023-03-30T08:22:37.880Z,22.43
2023-03-30T08:25:06.044Z,21.37
2023-03-30T08:27:33.173Z,19.37
2023-03-30T08:30:00.646Z,23.90
2023-03-30T08:32:30.343Z,23.10
2023-03-30T08:34:57.418Z,22.17
2023-03-30T08:37:25.162Z,25.97
2023-03-30T08:39:52.367Z,27.70
2023-03-30T08:42:50.644Z,22.03
2023-03-30T08:45:18.716Z,21.30
2023-03-30T08:47:51.120Z,24.40
2023-03-30T08:50:36.520Z,18.67
2023-03-30T08:53:08.265Z,19.97
2023-03-30T08:55:58.641Z,17.57
2023-03-30T08:58:55.996Z,18.30
2023-03-30T09:01:29.442Z,20.63
2023-03-30T09:04:33.557Z,20.30
2023-03-30T09:07:22.591Z,22.33
2023-03-30T09:09:55.131Z,16.13
2023-03-30T09:12:48.667Z,28.23
2023-03-30T09:15:39.554Z,28.63
2023-03-30T09:18:32.336Z,29.20
2023-03-30T09:21:06.327Z,28.60
2023-03-30T09:23:36.018Z,25.97
2023-03-30T09:26:14.843Z,24.63
2023-03-30T09:29:01.174Z,26.00
2023-03-30T09:31:44.483Z,23.40
2023-03-30T09:34:38.156Z,22.73
2023-03-30T09:37:11.890Z,22.40
2023-03-30T09:39:39.995Z,25.27
2023-03-30T09:43:10.718Z,26.00
2023-03-30T09:45:39.352Z,21.40
2023-03-30T09:48:09.046Z,21.57
2023-03-30T09:50:43.796Z,21.53
2023-03-30T09:53:27.766Z,21.40
2023-03-30T09:56:23.179Z,25.80
2023-03-30T09:58:50.547Z,26.50
2023-03-30T10:01:20.666Z,22.40
2023-03-30T10:04:10.238Z,24.73
2023-03-30T10:06:50.803Z,24.53
2023-03-30T10:09:24.113Z,20.60
2023-03-30T10:11:54.616Z,29.42
2023-03-30T10:14:33.959Z,21.98
2023-03-30T10:17:02.336Z,19.15
2023-03-30T10:19:30.452Z,19.65
2023-03-30T10:21:59.921Z,18.50
2023-03-30T10:24:31.589Z,21.90
2023-03-30T10:27:16.120Z,17.75
2023-03-30T10:29:50.348Z,25.65
2023-03-30T10:32:23.644Z,20.70
2023-03-30T10:35:02.038Z,21.00
2023-03-30T10:37:39.301Z,15.35
2023-03-30T10:40:26.644Z,18.20
2023-03-30T10:42:58.018Z,19.80
2023-03-30T10:45:35.343Z,22.10
2023-03-30T10:48:27.356Z,15.07
2023-03-30T10:51:03.053Z,14.32
2023-03-30T10:53:39.896Z,16.52
2023-03-30T10:56:41.423Z,18.23
2023-03-30T10:59:47.218Z,13.38
2023-03-30T11:02:40.045Z,17.85
2023-03-30T11:05:25.116Z,19.80
2023-03-30T11:08:18.518Z,15.98
2023-03-30T11:10:53.381Z,17.50
2023-03-30T11:13:43.049Z,15.38
2023-03-30T11:16:27.382Z,17.27
2023-03-30T11:19:07.403Z,18.38
2023-03-30T11:22:04.864Z,15.38
2023-03-30T11:24:34.264Z,16.42
2023-03-30T11:27:14.134Z,20.40
2023-03-30T11:30:03.297Z,21.02
2023-03-30T11:33:17.924Z,16.88
2023-03-30T11:36:19.005Z,21.67
2023-03-30T11:39:07.424Z,16.50
2023-03-30T11:41:39.043Z,21.75
2023-03-30T11:44:08.731Z,20.20
2023-03-30T11:47:14.952Z,21.65
2023-03-30T11:50:15.312Z,18.80
2023-03-30T11:53:03.149Z,17.00
2023-03-30T11:56:02.968Z,21.63
2023-03-30T11:58:47.729Z,16.08
2023-03-30T12:01:41.803Z,17.08
2023-03-30T12:04:14.921Z,17.33
2023-03-30T12:07:01.703Z,16.02
2023-03-30T12:10:02.800Z,15.68
2023-03-30T12:12:36.449Z,15.25
2023-03-30T12:15:40.372Z,15.93
2023-03-30T12:18:31.978Z,14.10
2023-03-30T12:21:32.519Z,18.23
2023-03-30T12:24:42.156Z,16.95
2023-03-30T12:27:11.844Z,14.75
2023-03-30T12:30:01.750Z,18.15
2023-03-30T12:32:30.987Z,17.17
2023-03-30T12:34:58.660Z,13.63
2023-03-30T12:37:38.231Z,13.65
2023-03-30T12:40:22.322Z,18.92
2023-03-30T12:43:15.519Z,19.98
2023-03-30T12:46:06.166Z,14.90
2023-03-30T12:49:05.993Z,18.08
2023-03-30T12:51:53.088Z,17.67
2023-03-30T12:55:26.741Z,19.40
2023-03-30T12:58:30.937Z,13.80
2023-03-30T13:01:18.909Z,13.40
2023-03-30T13:04:01.711Z,12.75
2023-03-30T13:06:37.110Z,13.13
2023-03-30T13:09:15.863Z,18.27
2023-03-30T13:12:06.913Z,18.85
2023-03-30T13:14:38.292Z,15.77
2023-03-30T13:17:08.171Z,16.75
2023-03-30T13:19:37.348Z,17.35
2023-03-30T13:22:13.192Z,13.48
2023-03-30T13:24:47.098Z,15.43
2023-03-30T13:27:14.028Z,13.05
2023-03-30T13:29:42.540Z,13.48
2023-03-30T13:32:23.471Z,15.90
2023-03-30T13:35:07.367Z,12.43
2023-03-30T13:37:53.137Z,18.63
2023-03-30T13:40:41.527Z,16.38
2023-03-30T13:43:50.908Z,20.65
2023-03-30T13:46:42.165Z,13.43
2023-03-30T13:49:18.537Z,10.48
2023-03-30T13:51:46.383Z,17.75
2023-03-30T13:54:30.823Z,11.88
2023-03-30T13:57:09.960Z,15.68
2023-03-30T13:59:43.616Z,13.77
2023-03-30T14:02:17.646Z,12.73
2023-03-30T14:04:45.276Z,10.63
2023-03-30T14:07:24.191Z,13.77
2023-03-30T14:10:16.920Z,10.95
2023-03-30T14:12:46.305Z,8.73
2023-03-30T14:15:42.600Z,9.63
2023-03-30T14:18:20.627Z,9.82
2023-03-30T14:21:00.839Z,9.48
2023-03-30T14:23:45.530Z,12.20
2023-03-30T14:26:28.058Z,12.95
2023-03-30T14:28:59.620Z,7.35
2023-03-30T14:31:27.409Z,10.00
2023-03-30T14:33:55.236Z,7.32
2023-03-30T14:36:22.855Z,8.77
2023-03-30T14:38:52.968Z,7.60
2023-03-30T14:41:28.514Z,8.95
2023-03-30T14:44:06.354Z,7.35
2023-03-30T14:46:47.013Z,6.75
2023-03-30T14:49:21.617Z,10.77
2023-03-30T14:51:51.935Z,9.98
2023-03-30T14:54:24.492Z,9.27
2023-03-30T14:57:00.273Z,12.13
2023-03-30T14:59:29.053Z,9.80
2023-03-30T15:01:56.948Z,10.00
2023-03-30T15:04:37.663Z,14.23
2023-03-30T15:07:05.438Z,8.18
2023-03-30T15:09:38.600Z,9.60
2023-03-30T15:12:06.405Z,7.82
2023-03-30T15:14:39.270Z,8.98
2023-03-30T15:17:18.178Z,11.18
2023-03-30T15:19:47.262Z,10.73
2023-03-30T15:22:35.081Z,13.23
2023-03-30T15:25:08.169Z,11.85
2023-03-30T15:27:37.739Z,14.13
2023-03-30T15:30:06.952Z,8.88
2023-03-30T15:32:39.205Z,10.27
2023-03-30T15:35:26.166Z,11.23
2023-03-30T15:38:11.068Z,10.13
2023-03-30T15:40:48.133Z,12.93
2023-03-30T15:43:27.481Z,14.10
2023-03-30T15:46:07.094Z,11.50
2023-03-30T15:48:53.673Z,10.88
2023-03-30T15:51:37.313Z,11.98
2023-03-30T15:54:40.395Z,15.27
2023-03-30T15:57:21.313Z,10.07
2023-03-30T16:00:01.442Z,11.55
2023-03-30T16:02:46.319Z,17.23
2023-03-30T16:05:20.867Z,15.82
2023-03-30T16:07:49.044Z,11.10
2023-03-30T16:10:32.639Z,11.15
2023-03-30T16:13:01.395Z,11.55
2023-03-30T16:15:31.954Z,10.60
2023-03-30T16:17:59.373Z,11.50
2023-03-30T16:20:30.757Z,13.18
2023-03-30T16:22:58.309Z,13.70
2023-03-30T16:25:37.811Z,16.55
2023-03-30T16:28:17.299Z,13.05
2023-03-30T16:30:47.965Z,12.95
2023-03-30T16:33:15.025Z,11.38
2023-03-30T16:35:42.137Z,12.90
2023-03-30T16:38:19.012Z,9.32
2023-03-30T16:40:54.203Z,11.85
2023-03-30T16:43:21.490Z,12.60
2023-03-30T16:45:48.682Z,10.27
2023-03-30T16:48:16.444Z,14.63
2023-03-30T16:50:46.670Z,17.55
2023-03-30T16:53:14.033Z,13.82
2023-03-30T16:55:41.745Z,13.38
2023-03-30T16:58:13.807Z,11.90
2023-03-30T17:00:48.596Z,15.73
2023-03-30T17:03:16.046Z,15.38
2023-03-30T17:05:51.468Z,15.93
2023-03-30T17:08:29.341Z,15.25
2023-03-30T17:11:04.944Z,18.60
2023-03-30T17:13:32.675Z,17.00
2023-03-30T17:16:01.233Z,18.83
2023-03-30T17:18:28.958Z,16.35
2023-03-30T17:20:58.721Z,13.95
2023-03-30T17:23:28.734Z,15.33
2023-03-30T17:25:58.393Z,13.50
2023-03-30T17:28:34.819Z,14.63
2023-03-30T17:31:06.602Z,17.08
2023-03-30T17:33:36.216Z,17.35
2023-03-30T17:36:22.973Z,14.88
2023-03-30T17:38:51.393Z,18.40
2023-03-30T17:41:19.829Z,18.27
2023-03-30T17:43:48.378Z,21.58
2023-03-30T17:46:18.816Z,15.13
2023-03-30T17:48:46.481Z,16.57
2023-03-30T17:51:13.508Z,20.17
2023-03-30T17:53:40.604Z,19.33
2023-03-30T17:56:07.905Z,16.63
2023-03-30T17:58:36.698Z,19.20
2023-03-30T18:01:08.284Z,16.38
2023-03-30T18:03:38.478Z,17.23
2023-03-30T18:06:06.523Z,19.93
2023-03-30T18:08:33.584Z,20.33
2023-03-30T18:11:01.678Z,18.77
2023-03-30T18:13:30.583Z,21.97
2023-03-30T18:16:00.145Z,20.27
2023-03-30T18:18:30.928Z,22.90
2023-03-30T18:21:03.091Z,20.73
2023-03-30T18:23:34.968Z,18.52
2023-03-30T18:26:09.265Z,17.73
2023-03-30T18:28:40.555Z,17.75
2023-03-30T18:31:08.932Z,23.13
2023-03-30T18:33:36.259Z,18.55
2023-03-30T18:36:07.576Z,16.30
2023-03-30T18:38:35.363Z,21.42
2023-03-30T18:41:02.447Z,16.70
2023-03-30T18:43:29.645Z,21.80
2023-03-30T18:46:02.595Z,24.70
2023-03-30T18:48:30.957Z,17.77
2023-03-30T18:50:58.477Z,20.60
2023-03-30T18:53:28.374Z,18.03
2023-03-30T18:56:00.733Z,18.05
2023-03-30T18:58:33.633Z,18.15
2023-03-30T19:01:01.491Z,21.50
2023-03-30T19:03:30.136Z,19.38
2023-03-30T19:05:57.412Z,25.77
2023-03-30T19:08:26.540Z,20.85
2023-03-30T19:10:57.279Z,22.77
2023-03-30T19:13:26.491Z,22.43
2023-03-30T19:15:54.091Z,21.50
2023-03-30T19:18:21.607Z,21.63
2023-03-30T19:20:50.145Z,25.45
2023-03-30T19:23:18.752Z,27.23
2023-03-30T19:25:46.117Z,24.63
2023-03-30T19:28:14.693Z,22.02
2023-03-30T19:30:41.974Z,22.00
2023-03-30T19:33:12.850Z,24.03
2023-03-30T19:35:41.614Z,27.33
2023-03-30T19:38:09.677Z,25.10
2023-03-30T19:40:41.563Z,27.30
2023-03-30T19:43:09.427Z,26.30
2023-03-30T19:45:36.801Z,25.90
2023-03-30T19:48:04.237Z,20.03
2023-03-30T19:50:31.735Z,30.20
2023-03-30T19:52:59.514Z,24.67
2023-03-30T19:55:27.161Z,26.97
2023-03-30T19:57:54.575Z,28.67
2023-03-30T20:00:21.942Z,22.40
2023-03-30T20:02:53.155Z,26.60
2023-03-30T20:05:24.725Z,21.37
2023-03-30T20:07:52.798Z,19.88
2023-03-30T20:10:24.582Z,24.23
2023-03-30T20:12:53.184Z,25.43
2023-03-30T20:15:22.906Z,23.25
2023-03-30T20:17:50.215Z,24.90
2023-03-30T20:20:22.891Z,25.93
2023-03-30T20:22:53.474Z,27.80
2023-03-30T20:25:24.845Z,26.60
2023-03-30T20:27:52.765Z,28.57
2023-03-30T20:30:21.194Z,25.10
2023-03-30T20:33:03.804Z,23.57
2023-03-30T20:35:37.993Z,19.50
2023-03-30T20:38:06.332Z,24.02
2023-03-30T20:40:33.395Z,25.77
2023-03-30T20:43:03.620Z,24.43
2023-03-30T20:45:31.954Z,25.37
2023-03-30T20:48:06.018Z,22.10
2023-03-30T20:50:33.966Z,22.50
2023-03-30T20:53:01.595Z,24.97
2023-03-30T20:55:28.594Z,27.20
2023-03-30T20:57:55.666Z,24.77
2023-03-30T21:00:23.307Z,21.90
2023-03-30T21:02:50.359Z,20.70
2023-03-30T21:05:17.536Z,21.87
2023-03-30T21:07:47.269Z,21.13
2023-03-30T21:10:16.365Z,19.35
2023-03-30T21:12:43.530Z,24.77
2023-03-30T21:15:11.184Z,27.33
2023-03-30T21:17:38.584Z,26.37
2023-03-30T21:20:09.233Z,21.57
2023-03-30T21:22:36.555Z,23.53
2023-03-30T21:25:03.957Z,22.33
2023-03-30T21:27:31.022Z,24.13
2023-03-30T21:29:58.201Z,22.50
2023-03-30T21:32:25.440Z,22.20
2023-03-30T21:34:52.617Z,25.07
2023-03-30T21:37:19.700Z,23.33
2023-03-30T21:39:46.891Z,17.87
2023-03-30T21:42:13.974Z,21.03
2023-03-30T21:44:40.992Z,20.87
2023-03-30T21:47:08.035Z,23.63
2023-03-30T21:49:37.268Z,20.73
2023-03-30T21:52:04.595Z,24.60
2023-03-30T21:54:31.753Z,17.13
2023-03-30T21:56:58.837Z,21.27
2023-03-30T21:59:25.946Z,21.57
2023-03-30T22:01:53.166Z,20.77
2023-03-30T22:04:20.822Z,16.80
2023-03-30T22:06:47.942Z,22.70
2023-03-30T22:09:15.020Z,19.30
2023-03-30T22:11:42.657Z,17.63
2023-03-30T22:14:09.692Z,18.93
2023-03-30T22:16:36.905Z,17.47
2023-03-30T22:19:04.872Z,21.93
2023-03-30T22:21:35.607Z,17.30
2023-03-30T22:24:07.684Z,18.67
2023-03-30T22:26:36.290Z,19.20
2023-03-30T22:29:04.594Z,14.30
2023-03-30T22:31:32.774Z,13.93
2023-03-30T22:33:59.880Z,14.13
2023-03-30T22:36:30.919Z,13.90
2023-03-30T22:39:00.267Z,14.53
2023-03-30T22:41:28.357Z,14.73
2023-03-30T22:43:57.581Z,11.80
2023-03-30T22:46:27.090Z,11.52
2023-03-30T22:48:55.660Z,16.60
2023-03-30T22:51:27.672Z,17.50
2023-03-30T22:53:59.405Z,10.53
2023-03-30T22:56:30.762Z,11.87
2023-03-30T22:59:01.380Z,12.37
2023-03-30T23:01:32.092Z,12.77
2023-03-30T23:03:59.764Z,14.73
2023-03-30T23:06:26.998Z,16.55
2023-03-30T23:08:54.579Z,13.63
2023-03-30T23:11:21.673Z,12.13
2023-03-30T23:13:49.195Z,11.70
2023-03-30T23:16:16.218Z,15.33
2023-03-30T23:18:43.268Z,14.90
2023-03-30T23:21:11.156Z,13.30
2023-03-30T23:23:38.550Z,15.67
2023-03-30T23:26:09.742Z,15.87
2023-03-30T23:28:42.522Z,12.80
2023-03-30T23:31:15.911Z,15.10
2023-03-30T23:33:43.675Z,14.17
2023-03-30T23:36:17.353Z,11.17
2023-03-30T23:38:45.031Z,13.63
2023-03-30T23:41:19.074Z,11.37
2023-03-30T23:43:47.072Z,16.20
2023-03-30T23:46:15.571Z,12.30
2023-03-30T23:48:43.172Z,13.97
2023-03-30T23:51:10.701Z,18.03
2023-03-30T23:53:41.720Z,14.80
2023-03-30T23:56:17.790Z,14.07
2023-03-30T23:58:46.146Z,15.43
